Edgewood, Washington
Current Conditions -  °F | °C
As of 6:37 AM on Thursday 23 Oct 2014 (Local Time) from KTCM Reporting Station
Light Rain Light Rain  
Wind Chill: 50°   Ceiling: 5000
Heat Index: 50°   Visibility: 10mi
Dew Point: 50°   Wind: 9mph
Humidity: 100%   Direction: 170°S
Pressure: 29.76"   Gusts: NA
Location:  47.2018°N, 122.233°W
Report Text: KTCM 231337Z AUTO 17008KT 10SM -RA OVC050 10/10 A2976 RMK AO2 RAE1336 $
Loading
Personal Weather Stations






























Interactive Weather Map
Tropical Storm Tracking
New forecast layout! Learn more

10-Day Weather Forecast

Advertisements
Track Severe Weather on mobile